Time;durP1;ratioP1;P1;durP2;ratioP2;P2;SDS_P1;SDS_P2;PMS_P1;PMS_P2;Temp;Humidity;BMP_temperature;BMP_pressure;BME280_temperature;BME280_humidity;BME280_pressure;Samples;Min_cycle;Max_cycle;Signal;HPM_P1;HPM_P2
2021/03/29 00:01:24;;;;;;;0.90;0.77;;;;;;;;;;5038767;28;20443;-72
2021/03/29 00:03:53;;;;;;;1.17;1.07;;;;;;;;;;5032103;28;20455;-72
2021/03/29 00:06:19;;;;;;;1.73;1.40;;;;;;;;;;5040208;28;20416;-72
2021/03/29 00:08:45;;;;;;;1.73;1.10;;;;;;;;;;5014312;28;20415;-72
2021/03/29 00:11:11;;;;;;;1.03;0.93;;;;;;;;;;5013934;28;20439;-71
2021/03/29 00:13:38;;;;;;;1.07;0.97;;;;;;;;;;5013959;28;20447;-72
2021/03/29 00:16:04;;;;;;;2.37;1.60;;;;;;;;;;5023300;28;20465;-72
2021/03/29 00:18:31;;;;;;;3.90;1.23;;;;;;;;;;5047357;28;20395;-70
2021/03/29 00:20:58;;;;;;;1.40;1.00;;;;;;;;;;5013989;28;20411;-72
2021/03/29 00:23:24;;;;;;;0.90;0.73;;;;;;;;;;5014480;28;20440;-71
2021/03/29 00:25:51;;;;;;;1.80;1.07;;;;;;;;;;5036229;28;20412;-71
2021/03/29 00:28:17;;;;;;;4.60;1.23;;;;;;;;;;5013860;28;20420;-71
2021/03/29 00:30:45;;;;;;;1.50;0.90;;;;;;;;;;5032996;28;20408;-71
2021/03/29 00:33:12;;;;;;;1.47;1.10;;;;;;;;;;5037172;28;20431;-71
2021/03/29 00:35:39;;;;;;;2.10;1.50;;;;;;;;;;5031569;28;20463;-71
2021/03/29 00:38:06;;;;;;;0.70;0.60;;;;;;;;;;5032870;28;20419;-71
2021/03/29 00:40:32;;;;;;;1.37;1.27;;;;;;;;;;5031600;28;20400;-71
2021/03/29 00:43:07;;;;;;;1.53;0.87;;;;;;;;;;5013901;28;20441;-72
2021/03/29 00:45:33;;;;;;;0.90;0.80;;;;;;;;;;5035273;28;20433;-72
2021/03/29 00:48:00;;;;;;;1.20;0.80;;;;;;;;;;5046576;28;20446;-71
2021/03/29 00:50:46;;;;;;;0.70;0.50;;;;;;;;;;5032852;28;20511;-72
2021/03/29 00:53:13;;;;;;;2.20;1.10;;;;;;;;;;5074671;23;20978;-69
2021/03/29 00:55:41;;;;;;;1.10;1.00;;;;;;;;;;5053942;28;20465;-69
2021/03/29 00:58:07;;;;;;;0.90;0.73;;;;;;;;;;5067626;28;20415;-69
2021/03/29 01:00:37;;;;;;;1.47;1.20;;;;;;;;;;5034092;28;20411;-70
2021/03/29 01:03:05;;;;;;;0.83;0.73;;;;;;;;;;5071652;28;20402;-69
2021/03/29 01:05:31;;;;;;;1.30;1.20;;;;;;;;;;5070847;28;20765;-70
2021/03/29 01:07:58;;;;;;;1.17;1.07;;;;;;;;;;5061671;22;20517;-68
2021/03/29 01:10:24;;;;;;;1.73;1.57;;;;;;;;;;5033271;28;20906;-66
2021/03/29 01:12:50;;;;;;;2.57;1.60;;;;;;;;;;5032944;28;20399;-68
2021/03/29 01:15:18;;;;;;;0.90;0.50;;;;;;;;;;5031996;28;20451;-67
2021/03/29 01:17:45;;;;;;;1.00;0.73;;;;;;;;;;5045013;28;20804;-67
2021/03/29 01:20:14;;;;;;;1.60;1.33;;;;;;;;;;5029869;28;20417;-66
2021/03/29 01:22:41;;;;;;;1.70;1.60;;;;;;;;;;5032220;28;20766;-64
2021/03/29 01:25:07;;;;;;;1.30;1.20;;;;;;;;;;5032358;28;20490;-66
2021/03/29 01:27:35;;;;;;;1.63;1.00;;;;;;;;;;5027979;28;20443;-68
2021/03/29 01:30:01;;;;;;;1.00;0.90;;;;;;;;;;5046855;28;20419;-68
2021/03/29 01:32:28;;;;;;;1.47;1.13;;;;;;;;;;5053161;28;20403;-67
2021/03/29 01:34:55;;;;;;;1.13;1.03;;;;;;;;;;5052152;28;20422;-67
2021/03/29 01:37:22;;;;;;;1.57;0.60;;;;;;;;;;5053008;28;20453;-67
2021/03/29 01:39:49;;;;;;;0.80;0.63;;;;;;;;;;5052663;28;20555;-68
2021/03/29 01:42:15;;;;;;;1.97;1.50;;;;;;;;;;5038665;28;20470;-67
2021/03/29 01:44:42;;;;;;;1.77;0.87;;;;;;;;;;5032939;28;20407;-67
2021/03/29 01:47:08;;;;;;;0.97;0.73;;;;;;;;;;5032511;28;20431;-65
2021/03/29 01:49:35;;;;;;;0.90;0.80;;;;;;;;;;5032635;28;20423;-65
2021/03/29 01:52:01;;;;;;;4.63;1.47;;;;;;;;;;5015071;28;20375;-67
2021/03/29 01:54:28;;;;;;;11.73;2.07;;;;;;;;;;5050141;28;20430;-67
2021/03/29 01:56:54;;;;;;;1.00;0.90;;;;;;;;;;5052581;28;20465;-67
2021/03/29 01:59:20;;;;;;;3.67;1.37;;;;;;;;;;5029952;28;20897;-67
2021/03/29 02:01:46;;;;;;;0.90;0.60;;;;;;;;;;5028516;28;20382;-67
2021/03/29 02:04:12;;;;;;;1.00;0.97;;;;;;;;;;5035762;28;20413;-68
2021/03/29 02:06:38;;;;;;;1.10;0.80;;;;;;;;;;5038178;28;20416;-69
2021/03/29 02:09:09;;;;;;;1.07;0.60;;;;;;;;;;5036495;28;20404;-67
2021/03/29 02:11:35;;;;;;;3.97;0.83;;;;;;;;;;5030287;28;20424;-68
2021/03/29 02:14:02;;;;;;;1.80;1.17;;;;;;;;;;5035127;28;20448;-67
2021/03/29 02:16:30;;;;;;;0.80;0.60;;;;;;;;;;5023321;28;20461;-66
2021/03/29 02:18:57;;;;;;;1.60;0.90;;;;;;;;;;5056461;28;20514;-66
2021/03/29 02:21:29;;;;;;;1.63;0.70;;;;;;;;;;5056702;28;20395;-66
2021/03/29 02:23:57;;;;;;;2.63;2.00;;;;;;;;;;5056242;28;20450;-66
2021/03/29 02:26:23;;;;;;;1.73;1.00;;;;;;;;;;5034541;28;20390;-67
2021/03/29 02:28:50;;;;;;;1.13;1.03;;;;;;;;;;5044965;28;20441;-68
2021/03/29 02:31:17;;;;;;;1.43;1.10;;;;;;;;;;5022047;28;20412;-67
2021/03/29 02:33:44;;;;;;;1.00;0.70;;;;;;;;;;5018627;28;20398;-68
2021/03/29 02:36:10;;;;;;;1.13;1.00;;;;;;;;;;5050806;28;20512;-66
2021/03/29 02:38:36;;;;;;;1.67;0.97;;;;;;;;;;5037303;28;20446;-68
2021/03/29 02:41:03;;;;;;;1.83;0.90;;;;;;;;;;5053511;28;20390;-67
2021/03/29 02:43:30;;;;;;;1.93;1.23;;;;;;;;;;5056965;28;20469;-67
2021/03/29 02:45:57;;;;;;;2.30;1.20;;;;;;;;;;5057231;28;20482;-67
2021/03/29 02:48:25;;;;;;;1.13;0.70;;;;;;;;;;5060180;28;20423;-68
2021/03/29 02:50:52;;;;;;;0.70;0.60;;;;;;;;;;5040745;28;20423;-65
2021/03/29 02:53:19;;;;;;;2.30;1.77;;;;;;;;;;5040584;28;20398;-67
2021/03/29 02:55:46;;;;;;;2.33;2.13;;;;;;;;;;5035588;28;20430;-66
2021/03/29 02:58:14;;;;;;;1.00;0.73;;;;;;;;;;5051321;28;20439;-66
2021/03/29 03:00:40;;;;;;;3.87;1.53;;;;;;;;;;5048715;28;20430;-67
2021/03/29 03:03:07;;;;;;;1.43;1.00;;;;;;;;;;5052709;28;20431;-65
2021/03/29 03:05:34;;;;;;;0.80;0.80;;;;;;;;;;5035413;28;20446;-66
2021/03/29 03:08:01;;;;;;;1.63;0.97;;;;;;;;;;5053183;28;20876;-65
2021/03/29 03:10:31;;;;;;;2.90;0.80;;;;;;;;;;5053673;28;20405;-67
2021/03/29 03:12:58;;;;;;;1.27;1.17;;;;;;;;;;5053644;28;20373;-67
2021/03/29 03:15:28;;;;;;;1.10;0.90;;;;;;;;;;5037120;28;20756;-65
2021/03/29 03:17:54;;;;;;;1.53;1.10;;;;;;;;;;5036294;28;20418;-65
2021/03/29 03:20:20;;;;;;;1.53;1.23;;;;;;;;;;5034875;28;20390;-67
2021/03/29 03:22:50;;;;;;;5.70;1.57;;;;;;;;;;5034309;28;20771;-67
2021/03/29 03:25:21;;;;;;;1.10;0.87;;;;;;;;;;5034902;28;20400;-65
2021/03/29 03:27:47;;;;;;;1.30;0.90;;;;;;;;;;5032180;28;20428;-67
2021/03/29 03:30:20;;;;;;;3.20;1.80;;;;;;;;;;5036898;28;20419;-66
2021/03/29 03:32:46;;;;;;;2.63;1.80;;;;;;;;;;5035479;28;20420;-66
2021/03/29 03:35:13;;;;;;;2.03;0.87;;;;;;;;;;5034961;28;20854;-67
2021/03/29 03:37:40;;;;;;;1.57;1.03;;;;;;;;;;5035270;28;20402;-66
2021/03/29 03:40:06;;;;;;;3.30;1.37;;;;;;;;;;5053612;28;20415;-65
2021/03/29 03:42:32;;;;;;;0.93;0.83;;;;;;;;;;5055474;28;20485;-66
2021/03/29 03:44:59;;;;;;;2.30;1.77;;;;;;;;;;5056474;28;20432;-68
2021/03/29 03:47:26;;;;;;;2.33;1.23;;;;;;;;;;5055016;28;20446;-68
2021/03/29 03:49:52;;;;;;;1.53;1.10;;;;;;;;;;5055256;28;20374;-67
2021/03/29 03:52:19;;;;;;;1.33;1.23;;;;;;;;;;5045443;28;20449;-68
2021/03/29 03:54:46;;;;;;;1.63;1.23;;;;;;;;;;5054501;28;20544;-67
2021/03/29 03:57:12;;;;;;;3.83;1.53;;;;;;;;;;5037202;28;20455;-67
2021/03/29 03:59:39;;;;;;;3.53;1.23;;;;;;;;;;5055173;28;20776;-67
2021/03/29 04:02:06;;;;;;;1.57;1.27;;;;;;;;;;5054283;28;20419;-65
2021/03/29 04:04:33;;;;;;;1.00;0.90;;;;;;;;;;5054889;28;20429;-67
2021/03/29 04:06:59;;;;;;;1.20;1.00;;;;;;;;;;5034856;28;20454;-67
2021/03/29 04:09:39;;;;;;;1.20;1.10;;;;;;;;;;5030883;28;20438;-66
2021/03/29 04:12:09;;;;;;;1.67;0.87;;;;;;;;;;5024843;28;20794;-65
2021/03/29 04:14:35;;;;;;;0.87;0.67;;;;;;;;;;5034361;28;20767;-66
2021/03/29 04:17:01;;;;;;;1.40;1.20;;;;;;;;;;5036472;28;20548;-65
2021/03/29 04:19:27;;;;;;;1.20;1.07;;;;;;;;;;5038188;28;20417;-66
2021/03/29 04:21:53;;;;;;;1.47;1.10;;;;;;;;;;5033392;28;20423;-67
2021/03/29 04:24:19;;;;;;;2.10;1.90;;;;;;;;;;5031650;28;20408;-66
2021/03/29 04:26:45;;;;;;;5.40;4.30;;;;;;;;;;5036991;28;20421;-67
2021/03/29 04:29:11;;;;;;;6.60;2.63;;;;;;;;;;5026029;28;20423;-66
2021/03/29 04:31:37;;;;;;;1.27;0.80;;;;;;;;;;5033911;28;20415;-66
2021/03/29 04:34:03;;;;;;;8.77;1.43;;;;;;;;;;5033552;28;20375;-68
2021/03/29 04:36:29;;;;;;;1.77;1.67;;;;;;;;;;5033411;28;20451;-66
2021/03/29 04:38:55;;;;;;;1.90;1.27;;;;;;;;;;5038071;28;20488;-67
2021/03/29 04:41:20;;;;;;;0.80;0.60;;;;;;;;;;5026751;28;20387;-66
2021/03/29 04:43:46;;;;;;;1.33;1.00;;;;;;;;;;5033283;28;20457;-67
2021/03/29 04:46:12;;;;;;;1.50;0.90;;;;;;;;;;5032445;28;20415;-66
2021/03/29 04:48:39;;;;;;;3.80;1.57;;;;;;;;;;5046739;28;20805;-66
2021/03/29 04:51:05;;;;;;;1.07;0.80;;;;;;;;;;5028277;28;20405;-67
2021/03/29 04:53:31;;;;;;;2.73;1.00;;;;;;;;;;5045687;28;20417;-67
2021/03/29 04:55:57;;;;;;;3.63;1.13;;;;;;;;;;5030437;28;20484;-68
2021/03/29 04:58:23;;;;;;;0.97;0.87;;;;;;;;;;5031470;28;20445;-67
2021/03/29 05:00:49;;;;;;;1.27;1.17;;;;;;;;;;5034282;28;20415;-65
2021/03/29 05:03:15;;;;;;;4.17;1.30;;;;;;;;;;5028619;28;20414;-66
2021/03/29 05:05:41;;;;;;;1.37;1.13;;;;;;;;;;5029844;28;20447;-66
2021/03/29 05:08:07;;;;;;;0.90;0.70;;;;;;;;;;5029120;28;20422;-68
2021/03/29 05:10:35;;;;;;;1.43;1.10;;;;;;;;;;5031117;28;20990;-67
2021/03/29 05:13:01;;;;;;;2.13;0.97;;;;;;;;;;5032465;28;20419;-69
2021/03/29 05:15:27;;;;;;;0.80;0.67;;;;;;;;;;5033685;28;20513;-67
2021/03/29 05:17:53;;;;;;;1.37;1.20;;;;;;;;;;5031206;28;20432;-69
2021/03/29 05:20:19;;;;;;;0.90;0.80;;;;;;;;;;5030449;28;20751;-68
2021/03/29 05:22:45;;;;;;;0.73;0.63;;;;;;;;;;5028253;28;20593;-64
2021/03/29 05:25:11;;;;;;;1.70;1.60;;;;;;;;;;5031871;28;20878;-67
2021/03/29 05:27:37;;;;;;;1.93;1.67;;;;;;;;;;5030942;28;20406;-67
2021/03/29 05:30:04;;;;;;;1.03;0.70;;;;;;;;;;5031066;28;20451;-65
2021/03/29 05:32:30;;;;;;;1.43;0.87;;;;;;;;;;5030708;28;20374;-68
2021/03/29 05:34:57;;;;;;;1.23;1.13;;;;;;;;;;5028289;28;20439;-68
2021/03/29 05:37:23;;;;;;;1.10;0.70;;;;;;;;;;5028346;28;20463;-66
2021/03/29 05:39:51;;;;;;;2.33;1.67;;;;;;;;;;5027900;28;20424;-65
2021/03/29 05:42:17;;;;;;;3.00;1.70;;;;;;;;;;5023858;28;20397;-67
2021/03/29 05:44:43;;;;;;;36.73;1.83;;;;;;;;;;5020448;28;20473;-66
2021/03/29 05:47:09;;;;;;;0.70;0.53;;;;;;;;;;5031249;28;20852;-64
2021/03/29 05:49:35;;;;;;;1.13;1.03;;;;;;;;;;5029096;28;20420;-67
2021/03/29 05:52:02;;;;;;;1.07;0.97;;;;;;;;;;5032607;28;20408;-66
2021/03/29 05:54:28;;;;;;;0.77;0.60;;;;;;;;;;5029516;28;20390;-66
2021/03/29 05:56:54;;;;;;;6.10;1.53;;;;;;;;;;5022009;28;20499;-67
2021/03/29 06:01:48;;;;;;;1.67;0.90;;;;;;;;;;5029873;28;20443;-67
2021/03/29 06:04:14;;;;;;;2.20;2.00;;;;;;;;;;5028558;28;20459;-65
2021/03/29 06:06:41;;;;;;;1.20;0.73;;;;;;;;;;5010904;28;20474;-68
2021/03/29 06:09:07;;;;;;;0.80;0.70;;;;;;;;;;5031013;28;20433;-69
2021/03/29 06:11:35;;;;;;;1.10;0.60;;;;;;;;;;5031296;28;20922;-67
2021/03/29 06:14:13;;;;;;;1.00;0.80;;;;;;;;;;5031829;28;20415;-66
2021/03/29 06:16:57;;;;;;;1.50;0.80;;;;;;;;;;5031023;28;20430;-67
2021/03/29 06:19:35;;;;;;;2.10;1.30;;;;;;;;;;5028575;28;20430;-66
2021/03/29 06:22:08;;;;;;;1.43;0.83;;;;;;;;;;5028702;28;20408;-67
2021/03/29 06:24:54;;;;;;;1.63;0.70;;;;;;;;;;5029514;28;20442;-67
2021/03/29 06:27:20;;;;;;;1.23;0.80;;;;;;;;;;5027954;28;20467;-68
2021/03/29 06:29:47;;;;;;;0.87;0.87;;;;;;;;;;5034870;28;20408;-66
2021/03/29 06:32:19;;;;;;;1.20;1.00;;;;;;;;;;5038981;28;20919;-69
2021/03/29 06:34:46;;;;;;;4.67;1.17;;;;;;;;;;5035925;28;20485;-68
2021/03/29 06:37:12;;;;;;;0.80;0.63;;;;;;;;;;5050459;28;20483;-67
2021/03/29 06:39:38;;;;;;;4.50;4.10;;;;;;;;;;5045381;28;20400;-68
2021/03/29 06:42:05;;;;;;;0.97;0.60;;;;;;;;;;5042907;28;20860;-67
2021/03/29 06:44:32;;;;;;;16.53;1.90;;;;;;;;;;5038891;28;20386;-67
2021/03/29 06:47:04;;;;;;;1.67;0.93;;;;;;;;;;5049091;28;20816;-67
2021/03/29 06:49:59;;;;;;;8.53;2.83;;;;;;;;;;5039490;28;20396;-67
2021/03/29 06:52:29;;;;;;;4.33;1.17;;;;;;;;;;5024592;28;20411;-67
2021/03/29 06:55:15;;;;;;;1.07;0.97;;;;;;;;;;5039054;28;20887;-70
2021/03/29 06:57:41;;;;;;;9.33;2.83;;;;;;;;;;5033100;28;20447;-68
2021/03/29 07:00:12;;;;;;;1.57;1.10;;;;;;;;;;5033472;28;20435;-66
2021/03/29 07:02:39;;;;;;;1.40;1.00;;;;;;;;;;5017260;28;20389;-69
2021/03/29 07:05:06;;;;;;;0.97;0.83;;;;;;;;;;5035647;28;20429;-68
2021/03/29 07:10:04;;;;;;;1.93;1.23;;;;;;;;;;5082243;28;20942;-69
2021/03/29 07:12:42;;;;;;;2.17;1.03;;;;;;;;;;5070666;28;20423;-71
2021/03/29 07:15:09;;;;;;;0.90;0.70;;;;;;;;;;5090488;28;20454;-71
2021/03/29 07:17:36;;;;;;;4.73;1.83;;;;;;;;;;5072501;28;20804;-69
2021/03/29 07:20:03;;;;;;;3.50;1.17;;;;;;;;;;5070301;28;20487;-69
2021/03/29 07:22:30;;;;;;;0.80;0.70;;;;;;;;;;5068642;28;20418;-70
2021/03/29 07:25:01;;;;;;;1.33;1.00;;;;;;;;;;5069056;28;20413;-70
2021/03/29 07:27:28;;;;;;;0.90;0.67;;;;;;;;;;5069064;28;20909;-71
2021/03/29 07:29:54;;;;;;;0.90;0.80;;;;;;;;;;5068622;28;20473;-71
2021/03/29 07:32:33;;;;;;;2.30;1.23;;;;;;;;;;5067126;28;20908;-70
2021/03/29 07:34:59;;;;;;;2.57;2.47;;;;;;;;;;5066180;28;20387;-72
2021/03/29 07:37:47;;;;;;;3.13;1.50;;;;;;;;;;5067989;28;20458;-70
2021/03/29 07:40:17;;;;;;;2.70;0.90;;;;;;;;;;5066951;28;20912;-72
2021/03/29 07:42:46;;;;;;;1.30;0.80;;;;;;;;;;5063619;28;20453;-70
2021/03/29 07:45:16;;;;;;;1.60;1.27;;;;;;;;;;5064348;28;20391;-71
2021/03/29 07:47:48;;;;;;;6.60;1.37;;;;;;;;;;5071776;28;20380;-71
2021/03/29 07:50:16;;;;;;;1.97;1.03;;;;;;;;;;5068011;28;20836;-71
2021/03/29 07:52:43;;;;;;;5.13;1.00;;;;;;;;;;5071724;28;20897;-70
2021/03/29 07:55:20;;;;;;;1.70;0.93;;;;;;;;;;5061262;28;20427;-69
2021/03/29 07:57:46;;;;;;;0.80;0.57;;;;;;;;;;5059600;28;20447;-69
2021/03/29 08:00:12;;;;;;;1.57;1.37;;;;;;;;;;5071393;28;20430;-69
2021/03/29 08:02:38;;;;;;;1.77;0.93;;;;;;;;;;5045819;28;20426;-71
2021/03/29 08:05:06;;;;;;;1.33;1.23;;;;;;;;;;5071560;28;20426;-72
2021/03/29 08:07:36;;;;;;;2.50;1.33;;;;;;;;;;5066556;28;20405;-69
2021/03/29 08:10:02;;;;;;;1.63;0.90;;;;;;;;;;5061767;28;20427;-69
2021/03/29 08:12:28;;;;;;;2.33;2.00;;;;;;;;;;5057832;28;20385;-71
2021/03/29 08:14:54;;;;;;;2.90;1.43;;;;;;;;;;5064085;28;20392;-69
2021/03/29 08:17:47;;;;;;;2.27;1.40;;;;;;;;;;5069037;28;20457;-70
2021/03/29 08:20:15;;;;;;;0.80;0.70;;;;;;;;;;5071411;28;20379;-71
2021/03/29 08:22:41;;;;;;;1.97;1.00;;;;;;;;;;5070997;28;20416;-72
2021/03/29 08:25:26;;;;;;;1.20;1.10;;;;;;;;;;5051077;28;20867;-70
2021/03/29 08:27:56;;;;;;;1.57;1.23;;;;;;;;;;5070389;28;20394;-70
2021/03/29 08:30:22;;;;;;;1.07;0.97;;;;;;;;;;5072122;28;20376;-71
2021/03/29 08:32:48;;;;;;;3.13;1.47;;;;;;;;;;5071100;28;20376;-70
2021/03/29 08:35:17;;;;;;;2.10;0.90;;;;;;;;;;5070761;28;20368;-70
2021/03/29 08:37:54;;;;;;;1.00;0.90;;;;;;;;;;5070929;28;20468;-70
2021/03/29 08:40:34;;;;;;;1.63;1.23;;;;;;;;;;5068813;28;20363;-69
2021/03/29 08:43:04;;;;;;;1.47;1.30;;;;;;;;;;5068341;28;21097;-70
2021/03/29 08:45:30;;;;;;;2.83;1.50;;;;;;;;;;5071601;28;20921;-71
2021/03/29 08:47:57;;;;;;;1.07;0.97;;;;;;;;;;5070130;28;20437;-70
2021/03/29 08:50:25;;;;;;;2.43;1.33;;;;;;;;;;5053236;28;20741;-69
2021/03/29 08:52:54;;;;;;;1.13;0.90;;;;;;;;;;5067226;28;20446;-70
2021/03/29 08:55:21;;;;;;;1.00;0.90;;;;;;;;;;5066870;28;20388;-70
2021/03/29 08:57:48;;;;;;;3.80;1.30;;;;;;;;;;5059444;28;20773;-69
2021/03/29 09:00:17;;;;;;;13.17;1.20;;;;;;;;;;5070615;28;20447;-69
2021/03/29 09:02:43;;;;;;;3.13;1.00;;;;;;;;;;5068111;28;20400;-70
2021/03/29 09:05:10;;;;;;;2.00;1.80;;;;;;;;;;5054829;28;20433;-71
2021/03/29 09:07:40;;;;;;;1.30;0.90;;;;;;;;;;5065935;28;20537;-70
2021/03/29 09:10:26;;;;;;;1.33;1.10;;;;;;;;;;5067065;28;20773;-70
2021/03/29 09:12:54;;;;;;;1.00;0.90;;;;;;;;;;5061334;28;20906;-70
2021/03/29 09:15:20;;;;;;;2.33;1.20;;;;;;;;;;5057474;28;20417;-70
2021/03/29 09:17:55;;;;;;;1.50;1.40;;;;;;;;;;5045651;28;20415;-71
2021/03/29 09:20:22;;;;;;;2.03;1.33;;;;;;;;;;5047031;28;20379;-71
2021/03/29 09:22:48;;;;;;;1.67;1.20;;;;;;;;;;5069998;28;20441;-70
2021/03/29 09:25:21;;;;;;;1.07;0.93;;;;;;;;;;5069014;28;20897;-70
2021/03/29 09:27:49;;;;;;;1.00;0.90;;;;;;;;;;5068121;28;20385;-70
2021/03/29 09:30:15;;;;;;;1.30;0.80;;;;;;;;;;5050003;28;20454;-70
2021/03/29 09:32:43;;;;;;;1.40;1.00;;;;;;;;;;5069632;28;20380;-69
2021/03/29 09:35:09;;;;;;;2.07;0.83;;;;;;;;;;5068545;28;20376;-71
2021/03/29 09:37:35;;;;;;;1.03;0.93;;;;;;;;;;5063965;28;20799;-70
2021/03/29 09:40:03;;;;;;;2.93;1.97;;;;;;;;;;5066754;28;20867;-71
2021/03/29 09:42:36;;;;;;;2.50;2.30;;;;;;;;;;5069971;28;20843;-73
2021/03/29 09:45:02;;;;;;;3.50;1.27;;;;;;;;;;5063050;28;20409;-73
2021/03/29 09:47:29;;;;;;;1.73;1.20;;;;;;;;;;5070447;28;20475;-71
2021/03/29 09:49:56;;;;;;;3.93;1.20;;;;;;;;;;5058714;28;20453;-71
2021/03/29 09:52:33;;;;;;;2.67;1.53;;;;;;;;;;5052236;28;20374;-70
2021/03/29 09:54:59;;;;;;;1.60;1.00;;;;;;;;;;5062609;28;20388;-70
2021/03/29 09:57:25;;;;;;;3.03;1.30;;;;;;;;;;5062382;28;20514;-69
2021/03/29 09:59:52;;;;;;;1.80;1.37;;;;;;;;;;5057208;28;20397;-70
2021/03/29 10:02:21;;;;;;;2.13;1.93;;;;;;;;;;5031622;28;21018;-69
2021/03/29 10:04:58;;;;;;;4.70;2.40;;;;;;;;;;5060571;28;20408;-70
2021/03/29 10:07:24;;;;;;;3.00;2.80;;;;;;;;;;5054410;28;20376;-70
2021/03/29 10:09:57;;;;;;;10.60;1.80;;;;;;;;;;5065099;28;20527;-74
2021/03/29 10:12:32;;;;;;;1.97;1.63;;;;;;;;;;5067255;28;20392;-70
2021/03/29 10:15:05;;;;;;;0.80;0.70;;;;;;;;;;5061720;28;20399;-71
2021/03/29 10:17:34;;;;;;;6.40;2.30;;;;;;;;;;5065174;28;20472;-70
2021/03/29 10:20:04;;;;;;;1.60;1.50;;;;;;;;;;5064996;28;20433;-70
2021/03/29 10:22:30;;;;;;;1.50;0.90;;;;;;;;;;5046348;28;20406;-69
2021/03/29 10:24:58;;;;;;;4.97;1.63;;;;;;;;;;5067895;28;20501;-70
2021/03/29 10:27:24;;;;;;;1.03;0.93;;;;;;;;;;5054184;28;20808;-70
2021/03/29 10:29:50;;;;;;;3.00;1.80;;;;;;;;;;5070033;28;20944;-73
2021/03/29 10:32:17;;;;;;;1.00;0.70;;;;;;;;;;5066375;28;20418;-70
2021/03/29 10:34:44;;;;;;;2.00;1.30;;;;;;;;;;5050859;28;20432;-72
2021/03/29 10:37:21;;;;;;;6.13;2.30;;;;;;;;;;5064678;28;20466;-71
2021/03/29 10:39:47;;;;;;;1.83;1.57;;;;;;;;;;5072750;28;20421;-70
2021/03/29 10:42:14;;;;;;;1.50;1.03;;;;;;;;;;5063150;28;20399;-70
2021/03/29 10:44:40;;;;;;;3.40;2.23;;;;;;;;;;5069679;28;20394;-71
2021/03/29 10:47:06;;;;;;;3.33;2.30;;;;;;;;;;5057601;28;20402;-71
2021/03/29 10:49:32;;;;;;;1.10;1.00;;;;;;;;;;5067408;28;20429;-71
2021/03/29 10:51:58;;;;;;;2.57;1.23;;;;;;;;;;5040355;28;20430;-69
2021/03/29 10:54:24;;;;;;;1.60;1.10;;;;;;;;;;5054408;28;20421;-71
2021/03/29 10:56:51;;;;;;;12.23;1.53;;;;;;;;;;5071513;28;20450;-71
2021/03/29 10:59:16;;;;;;;1.63;1.20;;;;;;;;;;5071585;28;20509;-71
2021/03/29 11:01:42;;;;;;;1.00;0.90;;;;;;;;;;5054355;28;20504;-70
2021/03/29 11:04:09;;;;;;;2.60;1.87;;;;;;;;;;5071254;28;20444;-70
2021/03/29 11:06:35;;;;;;;2.73;1.27;;;;;;;;;;5072614;28;20399;-70
2021/03/29 11:09:00;;;;;;;2.47;1.40;;;;;;;;;;5069679;28;20449;-70
2021/03/29 11:11:26;;;;;;;2.13;1.27;;;;;;;;;;5071074;28;20410;-71
2021/03/29 11:13:52;;;;;;;3.87;0.80;;;;;;;;;;5071631;28;20441;-70
2021/03/29 11:16:20;;;;;;;6.63;1.80;;;;;;;;;;5072288;28;20446;-70
2021/03/29 11:18:46;;;;;;;4.00;1.67;;;;;;;;;;5068623;28;20540;-70
2021/03/29 11:21:12;;;;;;;9.40;1.27;;;;;;;;;;5071125;28;20406;-71
2021/03/29 11:23:38;;;;;;;1.20;0.93;;;;;;;;;;5053865;28;20171;-70
2021/03/29 11:26:04;;;;;;;1.13;0.90;;;;;;;;;;5069550;28;20485;-71
2021/03/29 11:28:31;;;;;;;2.37;1.57;;;;;;;;;;5069735;28;20450;-70
2021/03/29 11:30:57;;;;;;;1.50;1.00;;;;;;;;;;5072531;28;20399;-70
2021/03/29 11:33:23;;;;;;;2.13;1.37;;;;;;;;;;5072184;28;20406;-70
2021/03/29 11:35:49;;;;;;;2.30;2.10;;;;;;;;;;5069546;28;20457;-69
2021/03/29 11:38:15;;;;;;;6.27;2.93;;;;;;;;;;5054123;28;21071;-71
2021/03/29 11:40:41;;;;;;;4.70;1.70;;;;;;;;;;5071558;28;20829;-70
2021/03/29 11:43:07;;;;;;;1.33;1.23;;;;;;;;;;5071617;28;20384;-70
2021/03/29 11:45:33;;;;;;;2.30;1.20;;;;;;;;;;5072359;28;20398;-71
2021/03/29 11:47:59;;;;;;;17.77;1.43;;;;;;;;;;5071364;28;21002;-70
2021/03/29 11:50:26;;;;;;;1.30;1.10;;;;;;;;;;5073254;28;20398;-71
2021/03/29 11:52:52;;;;;;;2.40;1.23;;;;;;;;;;5070691;28;20499;-70
2021/03/29 11:55:18;;;;;;;3.43;1.90;;;;;;;;;;5073223;28;20384;-71
2021/03/29 11:57:44;;;;;;;2.67;1.50;;;;;;;;;;5073218;28;20405;-71
2021/03/29 12:00:20;;;;;;;4.20;1.47;;;;;;;;;;5073451;28;20869;-69
2021/03/29 12:03:12;;;;;;;2.63;1.03;;;;;;;;;;5072084;28;20414;-70
2021/03/29 12:05:46;;;;;;;1.30;1.10;;;;;;;;;;5068806;28;20929;-70
2021/03/29 12:08:22;;;;;;;2.70;2.50;;;;;;;;;;5073729;28;20433;-70
2021/03/29 12:13:36;;;;;;;1.87;1.70;;;;;;;;;;5071996;28;20445;-70
2021/03/29 12:16:04;;;;;;;3.60;1.10;;;;;;;;;;5071528;28;20937;-71
2021/03/29 12:20:59;;;;;;;3.10;2.27;;;;;;;;;;5072103;28;20413;-70
2021/03/29 12:23:25;;;;;;;2.10;1.47;;;;;;;;;;5070695;28;20773;-70
2021/03/29 12:25:52;;;;;;;1.73;1.40;;;;;;;;;;5069331;28;20423;-70
2021/03/29 12:28:19;;;;;;;2.07;1.27;;;;;;;;;;5066106;28;20422;-70
2021/03/29 12:30:46;;;;;;;1.57;1.20;;;;;;;;;;5073467;28;20410;-70
2021/03/29 12:33:12;;;;;;;1.63;1.53;;;;;;;;;;5023618;28;20410;-70
2021/03/29 12:35:38;;;;;;;1.90;1.40;;;;;;;;;;5072538;28;20453;-70
2021/03/29 12:38:04;;;;;;;5.20;2.23;;;;;;;;;;5071843;28;20438;-72
2021/03/29 12:40:32;;;;;;;4.10;2.20;;;;;;;;;;5074256;28;20414;-72
2021/03/29 12:45:26;;;;;;;2.13;1.20;;;;;;;;;;5077488;28;20410;-72
2021/03/29 12:47:52;;;;;;;2.80;1.27;;;;;;;;;;5074000;28;20795;-72
2021/03/29 12:50:20;;;;;;;1.77;1.47;;;;;;;;;;5053468;28;20459;-72
2021/03/29 12:52:47;;;;;;;2.77;1.13;;;;;;;;;;5059871;28;20422;-70
2021/03/29 12:55:15;;;;;;;2.93;1.23;;;;;;;;;;5064381;28;20414;-71
2021/03/29 12:57:41;;;;;;;9.07;2.53;;;;;;;;;;5068920;28;20511;-63
2021/03/29 13:00:09;;;;;;;7.07;1.50;;;;;;;;;;5068147;28;20418;-70
2021/03/29 13:02:36;;;;;;;3.93;1.40;;;;;;;;;;5058683;28;20415;-70
2021/03/29 13:05:02;;;;;;;2.20;1.90;;;;;;;;;;5064756;28;20517;-66
2021/03/29 13:07:35;;;;;;;1.10;1.00;;;;;;;;;;5059034;28;20410;-72
2021/03/29 13:12:46;;;;;;;1.67;1.40;;;;;;;;;;5068588;28;20718;-69
2021/03/29 13:15:13;;;;;;;2.67;1.83;;;;;;;;;;5050916;28;20426;-69
2021/03/29 13:17:40;;;;;;;1.70;1.30;;;;;;;;;;5062768;28;20501;-69
2021/03/29 13:20:16;;;;;;;2.67;2.03;;;;;;;;;;5072156;28;20448;-68
2021/03/29 13:22:43;;;;;;;1.50;1.03;;;;;;;;;;5076547;28;20414;-67
2021/03/29 13:25:10;;;;;;;2.80;2.00;;;;;;;;;;5051386;28;20414;-70
2021/03/29 13:27:36;;;;;;;1.80;1.70;;;;;;;;;;5077551;28;20418;-68
2021/03/29 13:30:04;;;;;;;2.50;1.10;;;;;;;;;;5073166;28;20426;-68
2021/03/29 13:32:31;;;;;;;12.23;2.67;;;;;;;;;;5075126;28;20465;-68
2021/03/29 13:34:57;;;;;;;1.60;1.50;;;;;;;;;;5069760;28;20414;-68
2021/03/29 13:37:24;;;;;;;1.70;1.30;;;;;;;;;;5071694;28;20460;-59
2021/03/29 13:39:52;;;;;;;2.17;1.10;;;;;;;;;;5072718;28;20437;-62
2021/03/29 13:42:18;;;;;;;2.93;2.73;;;;;;;;;;5055410;28;20510;-62
2021/03/29 13:44:44;;;;;;;2.30;1.80;;;;;;;;;;5073693;28;20913;-62
2021/03/29 13:47:10;;;;;;;2.30;1.80;;;;;;;;;;5066626;28;20397;-63
2021/03/29 13:49:37;;;;;;;2.27;2.17;;;;;;;;;;5063310;28;20419;-64
2021/03/29 13:52:03;;;;;;;5.60;2.60;;;;;;;;;;5064185;28;20904;-63
2021/03/29 13:54:31;;;;;;;3.10;1.33;;;;;;;;;;5035319;28;20499;-62
2021/03/29 13:56:57;;;;;;;2.87;1.53;;;;;;;;;;5069033;28;20457;-64
2021/03/29 13:59:23;;;;;;;5.67;1.67;;;;;;;;;;5088986;28;20426;-63
2021/03/29 14:01:49;;;;;;;4.03;2.00;;;;;;;;;;5073651;28;20471;-63
2021/03/29 14:04:15;;;;;;;1.80;1.23;;;;;;;;;;5063334;28;20766;-64
2021/03/29 14:06:42;;;;;;;2.30;1.80;;;;;;;;;;5074561;28;20872;-64
2021/03/29 14:09:10;;;;;;;3.03;1.90;;;;;;;;;;5089400;28;20476;-62
2021/03/29 14:11:36;;;;;;;1.70;1.53;;;;;;;;;;5085305;28;20531;-61
2021/03/29 14:14:02;;;;;;;2.90;1.73;;;;;;;;;;5084276;28;20488;-63
2021/03/29 14:16:28;;;;;;;1.47;1.33;;;;;;;;;;5085669;28;20506;-64
2021/03/29 14:18:54;;;;;;;7.20;3.40;;;;;;;;;;5089256;28;20924;-59
2021/03/29 14:21:21;;;;;;;2.30;2.00;;;;;;;;;;5068373;28;20416;-64
2021/03/29 14:23:47;;;;;;;16.47;1.63;;;;;;;;;;5049271;28;20430;-62
2021/03/29 14:26:13;;;;;;;2.93;2.47;;;;;;;;;;5083405;28;20413;-61
2021/03/29 14:28:40;;;;;;;1.97;1.37;;;;;;;;;;5069686;28;20435;-63
2021/03/29 14:31:08;;;;;;;2.10;1.40;;;;;;;;;;5075952;28;20414;-60
2021/03/29 14:33:36;;;;;;;1.60;1.50;;;;;;;;;;5071882;28;20520;-63
2021/03/29 14:36:26;;;;;;;2.00;1.80;;;;;;;;;;5080770;28;20450;-63
2021/03/29 14:39:05;;;;;;;1.93;1.20;;;;;;;;;;5079648;28;20465;-64
2021/03/29 14:44:32;;;;;;;5.43;2.50;;;;;;;;;;5072232;28;20417;-63
2021/03/29 14:46:59;;;;;;;4.77;2.80;;;;;;;;;;5072140;28;20405;-59
2021/03/29 14:49:25;;;;;;;3.60;1.80;;;;;;;;;;5030432;28;20922;-64
2021/03/29 14:51:52;;;;;;;6.73;2.17;;;;;;;;;;5063431;28;20895;-63
2021/03/29 14:54:18;;;;;;;11.33;4.33;;;;;;;;;;5047104;28;20430;-63
2021/03/29 14:56:44;;;;;;;8.13;1.60;;;;;;;;;;5066593;28;20454;-63
2021/03/29 14:59:10;;;;;;;1.53;1.00;;;;;;;;;;5073588;28;20444;-61
2021/03/29 15:01:36;;;;;;;3.27;2.13;;;;;;;;;;5067501;28;20838;-64
2021/03/29 15:04:07;;;;;;;4.93;1.93;;;;;;;;;;5046775;28;20885;-62
2021/03/29 15:06:42;;;;;;;2.13;1.90;;;;;;;;;;5064243;28;20370;-63